createdAt,value
2022-11-29T00:01:04.544Z,80.40
2022-11-29T00:03:31.962Z,78.72
2022-11-29T00:06:11.175Z,77.40
2022-11-29T00:08:38.379Z,75.20
2022-11-29T00:11:45.266Z,75.35
2022-11-29T00:14:13.828Z,75.82
2022-11-29T00:16:43.533Z,77.55
2022-11-29T00:19:11.078Z,76.47
2022-11-29T00:21:37.991Z,75.38
2022-11-29T00:24:05.270Z,74.68
2022-11-29T00:26:32.011Z,74.57
2022-11-29T00:28:59.106Z,74.72
2022-11-29T00:31:27.694Z,76.25
2022-11-29T00:33:54.809Z,74.43
2022-11-29T00:36:21.659Z,73.93
2022-11-29T00:38:48.663Z,73.57
2022-11-29T00:41:15.391Z,72.90
2022-11-29T00:43:42.554Z,71.30
2022-11-29T00:46:09.400Z,71.25
2022-11-29T00:48:36.756Z,71.97
2022-11-29T00:51:04.211Z,68.95
2022-11-29T00:53:31.627Z,65.57
2022-11-29T00:55:58.426Z,71.40
2022-11-29T00:58:25.554Z,70.82
2022-11-29T01:00:55.496Z,68.20
2022-11-29T01:03:22.719Z,69.78
2022-11-29T01:05:49.503Z,69.70
2022-11-29T01:08:17.246Z,68.65
2022-11-29T01:10:44.103Z,69.90
2022-11-29T01:13:11.219Z,70.45
2022-11-29T01:15:37.995Z,68.80
2022-11-29T01:18:05.134Z,70.22
2022-11-29T01:20:31.935Z,69.40
2022-11-29T01:22:59.014Z,68.53
2022-11-29T01:25:25.786Z,70.65
2022-11-29T01:27:52.845Z,68.57
2022-11-29T01:30:19.556Z,66.78
2022-11-29T01:32:46.599Z,68.30
2022-11-29T01:35:13.307Z,68.90
2022-11-29T01:37:40.420Z,65.28
2022-11-29T01:40:07.707Z,68.43
2022-11-29T01:42:34.775Z,68.18
2022-11-29T01:45:04.236Z,66.03
2022-11-29T01:47:31.630Z,65.80
2022-11-29T01:49:58.363Z,67.28
2022-11-29T01:52:26.380Z,68.43
2022-11-29T01:54:56.572Z,68.97
2022-11-29T01:57:23.686Z,67.38
2022-11-29T02:00:00.737Z,69.25
2022-11-29T02:02:40.237Z,67.07
2022-11-29T02:05:07.666Z,68.32
2022-11-29T02:07:34.862Z,67.88
2022-11-29T02:10:02.226Z,68.38
2022-11-29T02:12:31.218Z,66.63
2022-11-29T02:15:08.073Z,66.85
2022-11-29T02:17:48.420Z,70.00
2022-11-29T02:20:40.034Z,68.35
2022-11-29T02:23:28.963Z,66.25
2022-11-29T02:26:20.222Z,67.63
2022-11-29T02:29:10.374Z,69.30
2022-11-29T02:31:50.806Z,70.00
2022-11-29T02:34:33.167Z,70.22
2022-11-29T02:37:27.226Z,70.47
2022-11-29T02:40:28.401Z,70.03
2022-11-29T02:43:36.665Z,71.30
2022-11-29T02:46:25.079Z,69.50
2022-11-29T02:49:00.923Z,68.88
2022-11-29T02:51:34.770Z,67.45
2022-11-29T02:54:06.702Z,67.93
2022-11-29T02:56:52.276Z,68.50
2022-11-29T02:59:33.974Z,67.88
2022-11-29T03:02:12.237Z,67.20
2022-11-29T03:04:51.433Z,69.90
2022-11-29T03:07:24.104Z,67.28
2022-11-29T03:10:13.533Z,69.00
2022-11-29T03:12:42.282Z,66.25
2022-11-29T03:15:31.871Z,65.82
2022-11-29T03:18:33.013Z,68.45
2022-11-29T03:21:08.942Z,64.22
2022-11-29T03:23:48.796Z,64.05
2022-11-29T03:26:34.344Z,66.85
2022-11-29T03:31:52.275Z,62.92
2022-11-29T03:34:34.304Z,61.88
2022-11-29T03:37:07.121Z,61.65
2022-11-29T03:39:41.584Z,61.85
2022-11-29T03:42:11.413Z,61.67
2022-11-29T03:44:41.566Z,64.93
2022-11-29T03:47:10.349Z,63.08
2022-11-29T03:49:42.825Z,60.15
2022-11-29T03:52:16.466Z,59.22
2022-11-29T03:55:11.385Z,63.13
2022-11-29T03:57:57.772Z,63.63
2022-11-29T04:00:25.033Z,62.33
2022-11-29T04:03:33.802Z,59.97
2022-11-29T04:06:38.447Z,58.92
2022-11-29T04:09:05.116Z,62.47
2022-11-29T04:11:55.993Z,59.97
2022-11-29T04:14:34.815Z,60.17
2022-11-29T04:17:10.612Z,57.95
2022-11-29T04:20:14.678Z,58.85
2022-11-29T04:22:44.071Z,58.13
2022-11-29T04:25:33.932Z,60.17
2022-11-29T04:28:09.459Z,60.95
2022-11-29T04:31:12.661Z,62.00
2022-11-29T04:33:42.650Z,57.67
2022-11-29T04:36:31.468Z,61.22
2022-11-29T04:39:04.480Z,58.90
2022-11-29T04:41:51.641Z,58.30
2022-11-29T04:44:44.031Z,57.67
2022-11-29T04:47:38.076Z,57.95
2022-11-29T04:50:27.035Z,57.90
2022-11-29T04:53:09.964Z,57.95
2022-11-29T04:55:52.091Z,55.20
2022-11-29T04:58:27.158Z,60.42
2022-11-29T05:01:25.426Z,57.38
2022-11-29T05:04:16.915Z,58.78
2022-11-29T05:07:02.261Z,59.92
2022-11-29T05:10:01.762Z,57.53
2022-11-29T05:12:47.728Z,57.53
2022-11-29T05:15:27.551Z,57.33
2022-11-29T05:18:16.374Z,57.47
2022-11-29T05:21:04.435Z,58.58
2022-11-29T05:23:59.314Z,59.85
2022-11-29T05:26:50.962Z,58.90
2022-11-29T05:29:40.047Z,58.42
2022-11-29T05:32:21.678Z,60.05
2022-11-29T05:35:00.646Z,58.25
2022-11-29T05:37:49.525Z,57.97
2022-11-29T05:40:24.146Z,59.72
2022-11-29T05:42:54.933Z,58.78
2022-11-29T05:45:25.966Z,61.05
2022-11-29T05:48:10.175Z,58.67
2022-11-29T05:50:49.578Z,57.83
2022-11-29T05:53:25.464Z,58.03
2022-11-29T05:56:23.656Z,60.17
2022-11-29T05:58:55.818Z,57.88
2022-11-29T06:01:41.828Z,58.35
2022-11-29T06:06:48.078Z,55.53
2022-11-29T06:09:29.052Z,60.40
2022-11-29T06:12:21.030Z,60.08
2022-11-29T06:14:51.070Z,59.40
2022-11-29T06:17:39.633Z,57.78
2022-11-29T06:20:15.489Z,60.25
2022-11-29T06:22:58.344Z,62.30
2022-11-29T06:25:38.201Z,62.53
2022-11-29T06:28:42.836Z,59.20
2022-11-29T06:31:15.553Z,59.47
2022-11-29T06:33:56.462Z,58.63
2022-11-29T06:36:26.083Z,59.38
2022-11-29T06:38:53.284Z,61.20
2022-11-29T06:41:22.028Z,61.70
2022-11-29T06:43:49.348Z,61.60
2022-11-29T06:46:16.140Z,60.78
2022-11-29T06:48:51.520Z,62.83
2022-11-29T06:52:07.075Z,63.38
2022-11-29T06:54:40.146Z,61.63
2022-11-29T06:57:24.963Z,61.55
2022-11-29T06:59:52.029Z,59.88
2022-11-29T07:02:37.111Z,62.88
2022-11-29T07:05:15.479Z,62.15
2022-11-29T07:07:42.585Z,58.47
2022-11-29T07:10:17.205Z,63.25
2022-11-29T07:12:47.407Z,61.90
2022-11-29T07:15:19.472Z,63.05
2022-11-29T07:17:59.586Z,60.85
2022-11-29T07:20:41.956Z,60.17
2022-11-29T07:23:33.512Z,64.15
2022-11-29T07:26:00.511Z,62.60
2022-11-29T07:28:50.411Z,64.07
2022-11-29T07:31:49.731Z,61.95
2022-11-29T07:34:24.664Z,64.70
2022-11-29T07:37:07.100Z,62.83
2022-11-29T07:39:49.092Z,65.07
2022-11-29T07:42:34.477Z,63.35
2022-11-29T07:45:24.537Z,65.50
2022-11-29T07:47:51.674Z,64.90
2022-11-29T07:50:18.495Z,62.85
2022-11-29T07:52:45.725Z,66.85
2022-11-29T07:55:18.455Z,64.63
2022-11-29T07:57:46.876Z,64.93
2022-11-29T08:00:14.235Z,65.95
2022-11-29T08:02:41.398Z,65.63
2022-11-29T08:05:08.848Z,67.68
2022-11-29T08:07:37.110Z,64.95
2022-11-29T08:10:04.943Z,67.22
2022-11-29T08:12:32.072Z,65.43
2022-11-29T08:14:58.810Z,65.47
2022-11-29T08:17:26.160Z,64.18
2022-11-29T08:19:52.961Z,66.95
2022-11-29T08:22:20.023Z,64.57
2022-11-29T08:24:47.174Z,63.80
2022-11-29T08:27:14.512Z,65.47
2022-11-29T08:29:41.254Z,65.65
2022-11-29T08:32:09.068Z,66.13
2022-11-29T08:34:35.846Z,64.00
2022-11-29T08:37:02.888Z,61.95
2022-11-29T08:39:29.600Z,62.75
2022-11-29T08:41:56.595Z,63.65
2022-11-29T08:44:23.787Z,63.67
2022-11-29T08:47:09.368Z,61.38
2022-11-29T08:49:56.100Z,60.88
2022-11-29T08:52:41.471Z,62.72
2022-11-29T08:55:08.637Z,60.05
2022-11-29T08:57:40.446Z,63.17
2022-11-29T09:00:08.143Z,64.00
2022-11-29T09:02:36.246Z,65.50
2022-11-29T09:05:04.194Z,65.95
2022-11-29T09:07:31.294Z,64.68
2022-11-29T09:09:58.168Z,64.85
2022-11-29T09:12:25.319Z,61.78
2022-11-29T09:14:52.051Z,65.63
2022-11-29T09:17:19.035Z,65.70
2022-11-29T09:19:45.777Z,65.72
2022-11-29T09:22:12.999Z,61.78
2022-11-29T09:24:39.686Z,66.63
2022-11-29T09:27:06.795Z,63.90
2022-11-29T09:29:33.502Z,66.07
2022-11-29T09:32:00.650Z,65.40
2022-11-29T09:34:27.583Z,63.85
2022-11-29T09:36:54.816Z,67.97
2022-11-29T09:39:21.514Z,70.65
2022-11-29T09:42:03.974Z,66.75
2022-11-29T09:44:50.106Z,69.57
2022-11-29T09:47:38.002Z,62.50
2022-11-29T09:50:16.891Z,62.40
2022-11-29T09:52:46.892Z,62.67
2022-11-29T09:55:44.638Z,63.78
2022-11-29T09:58:14.389Z,65.65
2022-11-29T10:01:01.689Z,71.00
2022-11-29T10:03:28.807Z,75.05
2022-11-29T10:06:26.747Z,68.43
2022-11-29T10:09:05.019Z,67.05
2022-11-29T10:11:59.912Z,66.28
2022-11-29T10:14:48.596Z,67.15
2022-11-29T10:17:56.751Z,66.97
2022-11-29T10:20:25.795Z,66.55
2022-11-29T10:22:57.660Z,66.65
2022-11-29T10:25:26.622Z,64.82
2022-11-29T10:27:53.392Z,67.50
2022-11-29T10:30:20.847Z,69.13
2022-11-29T10:32:50.939Z,65.43
2022-11-29T10:35:19.295Z,65.03
2022-11-29T10:38:07.855Z,69.95
2022-11-29T10:40:34.595Z,68.90
2022-11-29T10:43:01.321Z,66.50
2022-11-29T10:45:40.609Z,67.45
2022-11-29T10:48:17.714Z,65.70
2022-11-29T10:50:45.663Z,64.15
2022-11-29T10:53:14.063Z,63.72
2022-11-29T10:55:49.007Z,64.50
2022-11-29T10:58:16.890Z,61.42
2022-11-29T11:00:44.633Z,65.05
2022-11-29T11:03:25.506Z,65.00
2022-11-29T11:06:03.721Z,63.47
2022-11-29T11:08:31.214Z,62.05
2022-11-29T11:11:01.788Z,65.25
2022-11-29T11:13:30.080Z,61.45
2022-11-29T11:16:08.852Z,60.38
2022-11-29T11:18:36.002Z,59.10
2022-11-29T11:21:03.169Z,61.22
2022-11-29T11:23:31.442Z,59.97
2022-11-29T11:26:06.301Z,63.13
2022-11-29T11:29:00.067Z,60.40
2022-11-29T11:31:31.920Z,61.17
2022-11-29T11:34:34.144Z,61.30
2022-11-29T11:37:22.950Z,59.45
2022-11-29T11:39:51.781Z,59.13
2022-11-29T11:42:39.419Z,61.58
2022-11-29T11:45:09.216Z,58.58
2022-11-29T11:47:38.154Z,59.42
2022-11-29T11:50:14.900Z,60.63
2022-11-29T11:52:58.356Z,57.13
2022-11-29T11:55:36.312Z,57.53
2022-11-29T11:58:12.591Z,56.53
2022-11-29T12:03:47.569Z,55.72
2022-11-29T12:06:26.163Z,56.17
2022-11-29T12:08:55.976Z,57.00
2022-11-29T12:11:22.782Z,54.88
2022-11-29T12:13:52.844Z,54.92
2022-11-29T12:16:32.300Z,58.25
2022-11-29T12:19:17.855Z,55.58
2022-11-29T12:21:46.321Z,55.63
2022-11-29T12:24:27.152Z,55.00
2022-11-29T12:26:57.672Z,54.30
2022-11-29T12:29:27.152Z,53.97
2022-11-29T12:32:06.333Z,53.70
2022-11-29T12:34:55.095Z,53.97
2022-11-29T12:37:37.155Z,53.15
2022-11-29T12:40:13.251Z,52.85
2022-11-29T12:42:58.553Z,51.05
2022-11-29T12:45:28.651Z,50.53
2022-11-29T12:48:20.226Z,51.40
2022-11-29T12:50:57.177Z,52.65
2022-11-29T12:53:33.878Z,49.97
2022-11-29T12:56:22.034Z,55.10
2022-11-29T12:59:21.097Z,51.50
2022-11-29T13:01:53.851Z,58.25
2022-11-29T13:04:38.961Z,55.38
2022-11-29T13:07:26.422Z,54.22
2022-11-29T13:10:02.766Z,52.03
2022-11-29T13:13:05.204Z,52.88
2022-11-29T13:15:55.139Z,51.38
2022-11-29T13:18:47.410Z,52.55
2022-11-29T13:21:16.150Z,52.00
2022-11-29T13:24:07.784Z,50.00
2022-11-29T13:26:33.374Z,52.33
2022-11-29T13:29:00.434Z,51.95
2022-11-29T13:31:27.225Z,51.63
2022-11-29T13:34:08.134Z,52.13
2022-11-29T13:36:55.168Z,49.83
2022-11-29T13:39:43.678Z,49.47
2022-11-29T13:42:33.417Z,50.72
2022-11-29T13:45:18.709Z,49.35
2022-11-29T13:47:52.944Z,49.55
2022-11-29T13:50:39.442Z,48.67
2022-11-29T13:53:17.849Z,47.05
2022-11-29T13:56:00.605Z,49.20
2022-11-29T13:58:39.732Z,48.13
2022-11-29T14:01:14.439Z,48.10
2022-11-29T14:03:42.618Z,47.55
2022-11-29T14:06:31.684Z,46.85
2022-11-29T14:09:21.156Z,47.63
2022-11-29T14:11:51.387Z,50.13
2022-11-29T14:14:31.396Z,46.95
2022-11-29T14:17:02.556Z,49.20
2022-11-29T14:19:36.518Z,46.58
2022-11-29T14:22:03.385Z,46.47
2022-11-29T14:24:35.283Z,46.78
2022-11-29T14:27:08.923Z,46.80
2022-11-29T14:29:54.146Z,47.22
2022-11-29T14:32:26.836Z,47.53
2022-11-29T14:34:56.825Z,49.47
2022-11-29T14:37:41.204Z,46.03
2022-11-29T14:40:31.917Z,46.33
2022-11-29T14:42:59.583Z,45.15
2022-11-29T14:45:27.837Z,47.40
2022-11-29T14:47:54.601Z,45.75
2022-11-29T14:50:31.061Z,46.42
2022-11-29T14:52:57.824Z,49.63
2022-11-29T14:55:24.898Z,50.03
2022-11-29T14:57:57.764Z,49.22
2022-11-29T15:00:27.101Z,52.92
2022-11-29T15:03:01.372Z,52.70
2022-11-29T15:05:35.699Z,53.58
2022-11-29T15:08:21.088Z,57.13
2022-11-29T15:13:31.269Z,57.83
2022-11-29T15:16:17.043Z,54.33
2022-11-29T15:19:30.360Z,57.50
2022-11-29T15:22:07.450Z,56.92
2022-11-29T15:24:58.119Z,55.22
2022-11-29T15:27:25.202Z,55.25
2022-11-29T15:29:52.915Z,56.17
2022-11-29T15:32:28.720Z,52.25
2022-11-29T15:37:23.465Z,52.22
2022-11-29T15:40:13.680Z,53.33
2022-11-29T15:42:44.850Z,53.63
2022-11-29T15:45:26.132Z,51.15
2022-11-29T15:47:53.617Z,51.63
2022-11-29T15:50:29.347Z,52.55
2022-11-29T15:53:01.436Z,54.80
2022-11-29T15:55:28.130Z,52.83
2022-11-29T15:57:55.384Z,54.70
2022-11-29T16:00:24.228Z,55.83
2022-11-29T16:02:56.198Z,55.47
2022-11-29T16:05:25.260Z,55.33
2022-11-29T16:07:57.576Z,54.97
2022-11-29T16:10:29.242Z,55.15
2022-11-29T16:13:23.584Z,57.97
2022-11-29T16:16:16.180Z,56.75
2022-11-29T16:18:44.784Z,55.75
2022-11-29T16:21:23.796Z,55.30
2022-11-29T16:23:50.999Z,55.35
2022-11-29T16:26:20.047Z,56.75
2022-11-29T16:28:48.765Z,56.00
2022-11-29T16:31:39.315Z,55.13
2022-11-29T16:34:31.315Z,54.92
2022-11-29T16:37:06.609Z,55.58
2022-11-29T16:39:34.484Z,56.15
2022-11-29T16:42:30.861Z,55.80
2022-11-29T16:45:27.255Z,56.17
2022-11-29T16:50:31.122Z,55.80
2022-11-29T16:53:37.031Z,54.28
2022-11-29T16:56:17.394Z,54.35
2022-11-29T16:59:25.537Z,55.20
2022-11-29T17:01:34.654Z,53.78
2022-11-29T17:04:01.527Z,55.80
2022-11-29T17:06:29.103Z,56.40
2022-11-29T17:08:56.727Z,57.08
2022-11-29T17:11:23.931Z,56.60
2022-11-29T17:13:50.993Z,55.80
2022-11-29T17:16:20.229Z,55.08
2022-11-29T17:18:47.139Z,55.05
2022-11-29T17:21:20.302Z,54.70
2022-11-29T17:23:47.307Z,55.13
2022-11-29T17:26:15.527Z,56.13
2022-11-29T17:28:43.534Z,53.50
2022-11-29T17:31:15.065Z,56.63
2022-11-29T17:33:41.855Z,53.70
2022-11-29T17:36:15.309Z,53.58
2022-11-29T17:38:42.902Z,54.25
2022-11-29T17:41:11.967Z,52.83
2022-11-29T17:43:38.865Z,53.50
2022-11-29T17:46:10.078Z,51.92
2022-11-29T17:48:38.494Z,49.95
2022-11-29T17:51:17.293Z,54.15
2022-11-29T17:53:54.087Z,52.97
2022-11-29T17:56:22.850Z,54.17
2022-11-29T17:58:53.654Z,51.58
2022-11-29T18:01:22.795Z,50.63
2022-11-29T18:03:52.139Z,52.30
2022-11-29T18:06:20.852Z,51.30
2022-11-29T18:08:49.029Z,52.75
2022-11-29T18:11:17.056Z,54.10
2022-11-29T18:13:43.810Z,53.67
2022-11-29T18:16:18.807Z,51.15
2022-11-29T18:18:45.797Z,53.30
2022-11-29T18:21:13.073Z,53.70
2022-11-29T18:23:41.084Z,53.92
2022-11-29T18:26:11.101Z,51.53
2022-11-29T18:28:38.725Z,53.25
2022-11-29T18:31:12.613Z,55.40
2022-11-29T18:33:40.128Z,54.28
2022-11-29T18:36:17.953Z,55.63
2022-11-29T18:38:45.176Z,55.25
2022-11-29T18:41:19.587Z,59.15
2022-11-29T18:43:46.985Z,60.90
2022-11-29T18:46:18.705Z,61.53
2022-11-29T18:48:46.424Z,59.25
2022-11-29T18:51:15.018Z,58.83
2022-11-29T18:53:42.131Z,57.95
2022-11-29T18:56:10.069Z,59.70
2022-11-29T18:58:36.932Z,57.88
2022-11-29T19:01:05.074Z,55.58
2022-11-29T19:03:42.510Z,58.60
2022-11-29T19:06:11.751Z,53.53
2022-11-29T19:08:38.765Z,53.53
2022-11-29T19:11:10.546Z,54.15
2022-11-29T19:13:37.416Z,53.35
2022-11-29T19:16:05.123Z,50.75
2022-11-29T19:18:31.906Z,50.42
2022-11-29T19:21:05.752Z,50.83
2022-11-29T19:23:32.539Z,49.38
2022-11-29T19:26:10.563Z,49.60
2022-11-29T19:28:41.024Z,50.70
2022-11-29T19:31:08.565Z,46.55
2022-11-29T19:33:35.963Z,47.03
2022-11-29T19:36:13.458Z,46.20
2022-11-29T19:38:40.519Z,46.53
2022-11-29T19:41:21.601Z,45.33
2022-11-29T19:43:48.707Z,45.20
2022-11-29T19:46:17.443Z,45.58
2022-11-29T19:48:44.428Z,47.20
2022-11-29T19:51:15.674Z,44.63
2022-11-29T19:53:42.462Z,45.83
2022-11-29T19:56:12.351Z,48.08
2022-11-29T19:58:39.073Z,49.17
2022-11-29T20:01:06.158Z,44.75
2022-11-29T20:03:33.273Z,44.88
2022-11-29T20:06:00.531Z,44.58
2022-11-29T20:08:27.517Z,45.08
2022-11-29T20:10:54.821Z,46.50
2022-11-29T20:13:21.968Z,44.22
2022-11-29T20:15:49.014Z,44.05
2022-11-29T20:18:15.848Z,44.72
2022-11-29T20:20:42.982Z,43.70
2022-11-29T20:23:09.724Z,42.15
2022-11-29T20:25:36.830Z,43.58
2022-11-29T20:28:04.214Z,40.78
2022-11-29T20:30:31.295Z,42.95
2022-11-29T20:32:58.180Z,43.95
2022-11-29T20:35:25.431Z,43.08
2022-11-29T20:38:40.541Z,42.58
2022-11-29T20:41:47.071Z,41.15
2022-11-29T20:44:16.651Z,40.88
2022-11-29T20:46:43.891Z,39.65
2022-11-29T20:49:13.934Z,40.00
2022-11-29T20:51:44.705Z,39.38
2022-11-29T20:54:11.445Z,37.53
2022-11-29T20:56:38.518Z,37.28
2022-11-29T20:59:05.236Z,38.17
2022-11-29T21:01:32.286Z,37.42
2022-11-29T21:03:59.123Z,39.03
2022-11-29T21:06:26.244Z,36.50
2022-11-29T21:08:53.740Z,36.00
2022-11-29T21:11:21.054Z,35.45
2022-11-29T21:13:48.184Z,35.80
2022-11-29T21:16:15.603Z,36.78
2022-11-29T21:18:42.640Z,36.03
2022-11-29T21:21:28.804Z,35.25
2022-11-29T21:24:03.523Z,34.28
2022-11-29T21:26:42.517Z,34.70
2022-11-29T21:29:18.168Z,33.35
2022-11-29T21:31:46.019Z,33.60
2022-11-29T21:34:12.820Z,33.60
2022-11-29T21:36:39.968Z,35.55
2022-11-29T21:39:07.555Z,33.67
2022-11-29T21:41:34.606Z,34.90
2022-11-29T21:44:08.988Z,33.00
2022-11-29T21:46:36.258Z,34.15
2022-11-29T21:49:03.161Z,33.55
2022-11-29T21:51:30.228Z,34.60
2022-11-29T21:53:56.977Z,34.30
2022-11-29T21:56:24.094Z,35.20
2022-11-29T21:58:50.810Z,35.90
2022-11-29T22:01:18.983Z,34.38
2022-11-29T22:03:45.881Z,33.17
2022-11-29T22:06:15.228Z,34.55
2022-11-29T22:08:43.540Z,34.65
2022-11-29T22:11:12.752Z,34.72
2022-11-29T22:14:00.311Z,32.92
2022-11-29T22:16:27.962Z,33.10
2022-11-29T22:18:54.896Z,35.63
2022-11-29T22:21:21.986Z,34.65
2022-11-29T22:23:48.711Z,33.05
2022-11-29T22:26:15.779Z,33.40
2022-11-29T22:28:42.527Z,32.63
2022-11-29T22:31:11.489Z,34.25
2022-11-29T22:33:38.547Z,33.80
2022-11-29T22:36:07.026Z,34.05
2022-11-29T22:38:33.891Z,34.55
2022-11-29T22:41:08.226Z,33.65
2022-11-29T22:43:35.031Z,34.83
2022-11-29T22:46:05.977Z,33.53
2022-11-29T22:48:38.222Z,32.30
2022-11-29T22:51:12.557Z,34.50
2022-11-29T22:53:40.390Z,33.10
2022-11-29T22:56:08.497Z,32.15
2022-11-29T22:58:35.245Z,32.03
2022-11-29T23:01:06.731Z,35.42
2022-11-29T23:03:37.330Z,32.00
2022-11-29T23:06:05.246Z,32.22
2022-11-29T23:08:32.101Z,32.10
2022-11-29T23:10:59.226Z,32.35
2022-11-29T23:13:25.993Z,32.72
2022-11-29T23:15:53.102Z,31.55
2022-11-29T23:18:19.846Z,30.45
2022-11-29T23:20:46.868Z,32.15
2022-11-29T23:23:13.647Z,31.08
2022-11-29T23:25:48.774Z,31.88
2022-11-29T23:28:16.569Z,29.98
2022-11-29T23:30:43.653Z,30.25
2022-11-29T23:33:10.433Z,30.17
2022-11-29T23:35:37.465Z,29.67
2022-11-29T23:38:04.617Z,29.05
2022-11-29T23:40:31.701Z,30.50
2022-11-29T23:42:58.473Z,28.83
2022-11-29T23:45:25.534Z,28.45
2022-11-29T23:47:52.351Z,29.65
2022-11-29T23:50:19.399Z,29.73
2022-11-29T23:52:51.645Z,31.13
2022-11-29T23:55:19.879Z,30.23
2022-11-29T23:57:46.628Z,28.77
